»·PEaware :: WAT169 KSNA-KLAS

WAT169 :: KSNA-KLAS

FLIGHT INFORMATION

Flight Status: Arrived
Operator: Unknown
More flights by this operator :: More flights under this callsign
Pilot: Marty P. (27464)
Aircraft: BOMBARDIER BD-100 CHALLENGER 300
(CL30)
More flights by this aircraft type
Origin: KSNA John Wayne-Orange Co
United States
Destination: KLAS McCarran Intl
United States
More flights between these airports :: More routes between these airports
Route: FINZZ2 MISEN KEPEC6
File this flight plan on PilotEdge
Remarks:
Altitude:
(Current/Filed)
25,000ft
Speed:
(Current/Filed)
470kts
Departed: 18-Mar-20 01:53 PM
Arrived: 18-Mar-20 02:40 PM
Distance/Time
Traveled:
196nm/0:47
Distance/Time
To Go:
Arrived

Flight Plot

Page will automatically refresh every two minutes.

Flight plan parsing failed; only flown route is shown


Map Options




Map Legend


Flown Route
Filed Route
Departure Airport
Arrival Airport
Navaid (VOR, NDB)
Fix

Horizontal Profiles

Position Reports

Time Latitude Longitude Heading Altitude Ground
Speed
18-Mar-20 13:34 33.668129 -117.870979 221 62ft 0kts
18-Mar-20 13:35 33.668129 -117.870979 221 62ft 0kts
18-Mar-20 13:36 33.668129 -117.870979 221 62ft 0kts
18-Mar-20 13:37 33.668129 -117.870979 221 62ft 0kts
18-Mar-20 13:38 33.668129 -117.870979 221 62ft 0kts
18-Mar-20 13:39 33.668129 -117.870979 221 62ft 0kts
18-Mar-20 13:40 33.668129 -117.870979 221 62ft 0kts
18-Mar-20 13:41 33.668129 -117.870979 221 62ft 0kts
18-Mar-20 13:42 33.668129 -117.870979 221 62ft 0kts
18-Mar-20 13:43 33.668129 -117.870979 221 62ft 0kts
18-Mar-20 13:44 33.668129 -117.870979 221 62ft 0kts
18-Mar-20 13:45 33.668129 -117.870979 221 62ft 0kts
18-Mar-20 13:46 33.669292 -117.870750 40 63ft 11kts
18-Mar-20 13:47 33.671390 -117.868631 35 63ft 12kts
18-Mar-20 13:48 33.674683 -117.866117 27 62ft 17kts
18-Mar-20 13:49 33.678163 -117.863910 27 62ft 15kts
18-Mar-20 13:50 33.680993 -117.863831 296 62ft 11kts
18-Mar-20 13:51 33.681154 -117.864210 298 63ft 0kts
18-Mar-20 13:52 33.672823 -117.870643 207 67ft 148kts
18-Mar-20 13:53 33.616457 -117.891235 188 1937ft 203kts
18-Mar-20 13:54 33.563013 -117.910599 222 3825ft 220kts
18-Mar-20 13:55 33.512456 -117.966235 223 5625ft 254kts
18-Mar-20 13:56 33.511772 -118.038437 310 9330ft 244kts
18-Mar-20 13:57 33.560259 -118.103820 314 8539ft 284kts
18-Mar-20 13:58 33.632558 -118.103232 23 12801ft 300kts
18-Mar-20 13:59 33.715169 -118.056358 24 15649ft 355kts
18-Mar-20 14:00 33.807414 -118.002625 25 16999ft 390kts
18-Mar-20 14:01 33.900975 -117.947580 30 18585ft 383kts
18-Mar-20 14:02 33.988017 -117.870089 37 21364ft 403kts
18-Mar-20 14:03 34.078094 -117.787585 38 23748ft 422kts
18-Mar-20 14:04 34.156005 -117.678603 51 24884ft 459kts
18-Mar-20 14:05 34.238945 -117.555406 51 24875ft 482kts
18-Mar-20 14:06 34.323219 -117.429717 51 24887ft 481kts
18-Mar-20 14:07 34.405618 -117.306375 52 24888ft 482kts
18-Mar-20 14:08 34.489911 -117.179754 52 24889ft 480kts
18-Mar-20 14:09 34.574698 -117.053803 51 24890ft 480kts
18-Mar-20 14:10 34.660972 -116.928009 51 24891ft 483kts
18-Mar-20 14:11 34.747369 -116.801583 51 24893ft 485kts
18-Mar-20 14:12 34.828824 -116.681984 51 24894ft 487kts
18-Mar-20 14:13 34.930739 -116.570918 39 24404ft 486kts
18-Mar-20 14:14 35.035883 -116.468565 38 23883ft 473kts
18-Mar-20 14:15 35.134956 -116.362710 46 23599ft 470kts
18-Mar-20 14:16 35.225924 -116.249070 46 21658ft 459kts
18-Mar-20 14:17 35.312205 -116.140630 46 20140ft 441kts
18-Mar-20 14:18 35.397319 -116.033294 47 18022ft 433kts
18-Mar-20 14:19 35.480234 -115.928379 47 15906ft 420kts
18-Mar-20 14:20 35.560357 -115.826673 47 13789ft 403kts
18-Mar-20 14:21 35.634742 -115.732007 47 12850ft 339kts
18-Mar-20 14:22 35.695938 -115.653925 47 12874ft 303kts
18-Mar-20 14:23 35.757791 -115.581561 19 13035ft 311kts
18-Mar-20 14:25 35.860422 -115.569901 0 13040ft 322kts
18-Mar-20 14:25 35.936053 -115.565526 0 13034ft 326kts
18-Mar-20 14:26 35.993956 -115.489285 68 12459ft 320kts
18-Mar-20 14:27 36.025395 -115.393090 70 11015ft 267kts
18-Mar-20 14:28 36.025561 -115.302043 96 9542ft 276kts
18-Mar-20 14:29 36.019156 -115.211212 96 8989ft 272kts
18-Mar-20 14:30 36.013203 -115.123677 96 8233ft 247kts
18-Mar-20 14:31 36.047132 -115.064907 21 6820ft 248kts
18-Mar-20 14:32 36.109749 -115.034144 21 5516ft 225kts
18-Mar-20 14:33 36.169468 -115.004700 21 5520ft 235kts
18-Mar-20 14:34 36.226429 -115.006827 288 5559ft 210kts
18-Mar-20 14:35 36.207196 -115.068711 241 5485ft 186kts
18-Mar-20 14:36 36.177095 -115.114964 196 4227ft 178kts
18-Mar-20 14:37 36.134022 -115.136776 201 2863ft 152kts
18-Mar-20 14:38 36.099481 -115.156559 200 2250ft 136kts
18-Mar-20 14:39 36.089333 -115.163322 295 2188ft 0kts
18-Mar-20 14:40 36.089267 -115.164790 204 2188ft 8kts
18-Mar-20 14:41 36.085156 -115.167143 204 2187ft 19kts
18-Mar-20 14:42 36.081497 -115.169611 269 2187ft 9kts

Navigation Log

Ident Type
Flight plan parsing failed, navigation log unavailable